This is the latest recevied weather packets stored in our database for station/object HARMALA. If no packets are shown the sender has not sent any weather packets the latest 10 day(s).
| Time | Temp. | Humidity | Pressure | Rain* | Wind** | Luminosity | Snow |
|---|---|---|---|---|---|---|---|
| 1777964837 | 4.44° C | 86% | 1001 hPa | 0 mm | - | - | - |
| 1777962437 | 3.89° C | 89% | 1000.4 hPa | 0 mm | - | - | - |
| 1777961238 | 3.33° C | 91% | 1000.3 hPa | 0 mm | - | - | - |
| 1777960037 | 3.33° C | 91% | 1000.1 hPa | 0 mm | - | - | - |
| 1777958837 | 3.33° C | 91% | 1000.1 hPa | 0 mm | - | - | - |
| 1777957637 | 3.33° C | 91% | 999.7 hPa | 0 mm | - | - | - |
| 1777956437 | 4.44° C | 90% | 999.4 hPa | 1.02 mm | - | - | - |
| 1777955237 | 4.44° C | 89% | 999 hPa | 1.02 mm | - | - | - |
| 1777954037 | 4.44° C | 94% | 999.1 hPa | 1.02 mm | - | - | - |
| 1777943237 | 6.11° C | 93% | 1000 hPa | 0 mm | - | - | - |
| 1777940836 | 5.56° C | 94% | 1000 hPa | 0 mm | - | - | - |
| 1777937237 | 6.11° C | 95% | 1000 hPa | 0 mm | - | - | - |
| 1777933636 | 6.67° C | 93% | 1000.3 hPa | 0 mm | - | - | - |
| 1777931236 | 7.78° C | 92% | 1000.2 hPa | 0.76 mm | - | - | - |
| 1777930036 | 7.78° C | 93% | 1000.2 hPa | 0.76 mm | - | - | - |
| 1777928837 | 7.78° C | 92% | 1000.2 hPa | 0.76 mm | - | - | - |
| 1777926436 | 7.78° C | 90% | 1000.1 hPa | 0.51 mm | - | - | - |
| 1777922835 | 8.33° C | 83% | 1000.1 hPa | 0 mm | - | - | - |
| 1777921636 | 8.89° C | 75% | 1000 hPa | 0 mm | - | - | - |
| 1777919235 | 9.44° C | 70% | 1000.2 hPa | 0 mm | - | - | - |
| 1777918035 | 9.44° C | 66% | 1000 hPa | 0 mm | - | - | - |
| 1777916835 | 9.44° C | 66% | 1000 hPa | 0 mm | - | - | - |
| 1777915635 | 10° C | 64% | 1000.1 hPa | 0 mm | - | - | - |
| 1777914435 | 10° C | 62% | 1000.1 hPa | 0 mm | - | - | - |
| 1777913235 | 10° C | 62% | 1000 hPa | 0 mm | - | - | - |
* Rain latest hour (hover to see other rain measurements)
** Current wind speed in m/s (hover to see current wind gust speed)